Time;durP1;ratioP1;P1;durP2;ratioP2;P2;SDS_P1;SDS_P2;PMS_P1;PMS_P2;Temp;Humidity;BMP_temperature;BMP_pressure;BME280_temperature;BME280_humidity;BME280_pressure;Samples;Min_cycle;Max_cycle;Signal;HPM_P1;HPM_P2
2022/12/26 00:00:57;;;;;;;1999.90;999.90;;;;;;;;;;4988025;28;20313;-72
2022/12/26 00:03:25;;;;;;;1999.90;999.90;;;;;;;;;;5029604;22;20242;-72
2022/12/26 00:05:53;;;;;;;1999.90;999.90;;;;;;;;;;5006756;28;20980;-71
2022/12/26 00:08:21;;;;;;;1999.90;999.90;;;;;;;;;;5008833;28;20234;-73
2022/12/26 00:10:49;;;;;;;1999.90;999.90;;;;;;;;;;5005304;28;20230;-72
2022/12/26 00:13:18;;;;;;;1999.90;999.90;;;;;;;;;;5004098;28;20277;-72
2022/12/26 00:16:07;;;;;;;1999.90;999.90;;;;;;;;;;4999128;28;20763;-72
2022/12/26 00:18:35;;;;;;;1999.90;999.90;;;;;;;;;;5003793;28;20248;-72
2022/12/26 00:21:02;;;;;;;1999.90;999.90;;;;;;;;;;5002328;28;20234;-71
2022/12/26 00:23:31;;;;;;;1999.90;999.90;;;;;;;;;;5020831;28;20241;-71
2022/12/26 00:26:01;;;;;;;1999.90;999.90;;;;;;;;;;4998737;28;20230;-73
2022/12/26 00:28:31;;;;;;;1999.90;999.90;;;;;;;;;;5019083;28;20245;-72
2022/12/26 00:30:59;;;;;;;1999.90;999.90;;;;;;;;;;5002376;28;20233;-72
2022/12/26 00:33:27;;;;;;;1999.90;999.90;;;;;;;;;;5002715;28;20234;-71
2022/12/26 00:36:00;;;;;;;1999.90;999.90;;;;;;;;;;5003637;28;20238;-71
2022/12/26 00:38:28;;;;;;;1999.90;999.90;;;;;;;;;;5003712;28;21752;-74
2022/12/26 00:40:56;;;;;;;1999.90;999.90;;;;;;;;;;4986608;28;20256;-74
2022/12/26 00:43:23;;;;;;;1999.90;999.90;;;;;;;;;;5004573;28;20295;-72
2022/12/26 00:45:53;;;;;;;1999.90;999.90;;;;;;;;;;5001853;28;20321;-72
2022/12/26 00:48:20;;;;;;;1999.90;999.90;;;;;;;;;;5000223;28;20281;-71
2022/12/26 00:50:48;;;;;;;1999.90;999.90;;;;;;;;;;5002128;28;20241;-70
2022/12/26 00:53:16;;;;;;;1999.90;999.90;;;;;;;;;;5002943;28;20237;-72
2022/12/26 00:55:44;;;;;;;1999.90;999.90;;;;;;;;;;5004446;28;20268;-72
2022/12/26 00:58:12;;;;;;;1999.90;999.90;;;;;;;;;;5001610;28;20241;-71
2022/12/26 01:00:40;;;;;;;1999.90;999.90;;;;;;;;;;5003019;28;20241;-72
2022/12/26 01:03:09;;;;;;;1999.90;999.90;;;;;;;;;;4999066;28;20751;-72
2022/12/26 01:05:40;;;;;;;1999.90;999.90;;;;;;;;;;4985610;28;20241;-71
2022/12/26 01:08:08;;;;;;;1999.90;999.90;;;;;;;;;;5002564;28;20245;-73
2022/12/26 01:10:51;;;;;;;1999.90;999.90;;;;;;;;;;5004163;28;20818;-74
2022/12/26 01:13:19;;;;;;;1999.90;999.90;;;;;;;;;;5004597;28;20244;-71
2022/12/26 01:15:48;;;;;;;1999.90;999.90;;;;;;;;;;5008099;28;20309;-72
2022/12/26 01:18:17;;;;;;;1999.90;999.90;;;;;;;;;;5007750;28;20344;-73
2022/12/26 01:20:45;;;;;;;1999.90;999.90;;;;;;;;;;5006340;28;20233;-73
2022/12/26 01:23:13;;;;;;;1999.90;999.90;;;;;;;;;;5005575;28;20321;-71
2022/12/26 01:25:41;;;;;;;1999.90;999.90;;;;;;;;;;4991110;28;20229;-71
2022/12/26 01:28:29;;;;;;;1999.90;999.90;;;;;;;;;;5005068;28;20249;-72
2022/12/26 01:31:00;;;;;;;1999.90;999.90;;;;;;;;;;5005305;28;20234;-72
2022/12/26 01:33:29;;;;;;;1999.90;999.90;;;;;;;;;;5005312;28;20272;-71
2022/12/26 01:35:57;;;;;;;1999.90;999.90;;;;;;;;;;5006678;28;20387;-71
2022/12/26 01:38:25;;;;;;;1999.90;999.90;;;;;;;;;;5007202;28;20234;-72
2022/12/26 01:41:15;;;;;;;1999.90;999.90;;;;;;;;;;5005742;28;20329;-72
2022/12/26 01:43:49;;;;;;;1999.90;999.90;;;;;;;;;;5006017;28;20237;-71
2022/12/26 01:46:19;;;;;;;1999.90;999.90;;;;;;;;;;5005784;28;20672;-71
2022/12/26 01:48:50;;;;;;;1999.90;999.90;;;;;;;;;;4989236;28;20421;-73
2022/12/26 01:51:19;;;;;;;1999.90;999.90;;;;;;;;;;5006007;28;20708;-73
2022/12/26 01:53:48;;;;;;;1999.90;999.90;;;;;;;;;;5009195;28;20230;-71
2022/12/26 01:56:17;;;;;;;1999.90;999.90;;;;;;;;;;5005595;28;20644;-72
2022/12/26 01:58:47;;;;;;;1999.90;999.90;;;;;;;;;;5005425;28;20245;-70
2022/12/26 02:01:14;;;;;;;1999.90;999.90;;;;;;;;;;5004997;28;20249;-71
2022/12/26 02:06:32;;;;;;;1999.90;999.90;;;;;;;;;;4990604;28;20238;-72
2022/12/26 02:09:00;;;;;;;1999.90;999.90;;;;;;;;;;5003401;28;20306;-73
2022/12/26 02:11:32;;;;;;;1999.90;999.90;;;;;;;;;;5003436;28;20241;-71
2022/12/26 02:14:00;;;;;;;1999.90;999.90;;;;;;;;;;4984313;28;20722;-71
2022/12/26 02:16:28;;;;;;;1999.90;999.90;;;;;;;;;;5001961;28;20320;-70
2022/12/26 02:18:56;;;;;;;1999.90;999.90;;;;;;;;;;4985600;28;20298;-72
2022/12/26 02:21:45;;;;;;;1999.90;999.90;;;;;;;;;;5001766;28;20238;-71
2022/12/26 02:24:30;;;;;;;1999.90;999.90;;;;;;;;;;4999147;28;20234;-72
2022/12/26 02:27:12;;;;;;;1999.90;999.90;;;;;;;;;;4984189;28;22040;-71
2022/12/26 02:30:04;;;;;;;1999.90;999.90;;;;;;;;;;5000642;28;20834;-70
2022/12/26 02:32:45;;;;;;;1999.90;999.90;;;;;;;;;;5000758;28;20222;-71
2022/12/26 02:35:17;;;;;;;1999.90;999.90;;;;;;;;;;5016525;28;20237;-70
2022/12/26 02:37:52;;;;;;;1999.90;999.90;;;;;;;;;;5002567;28;20241;-70
2022/12/26 02:40:26;;;;;;;1999.90;999.90;;;;;;;;;;4999928;28;20252;-70
2022/12/26 02:42:58;;;;;;;1999.90;999.90;;;;;;;;;;4999372;28;20237;-71
2022/12/26 02:48:19;;;;;;;1999.90;999.90;;;;;;;;;;5000113;28;20234;-71
2022/12/26 03:13:36;;;;;;;1999.90;999.90;;;;;;;;;;5004618;28;21059;-71
2022/12/26 03:18:53;;;;;;;1999.90;999.90;;;;;;;;;;5005375;28;20241;-73
2022/12/26 03:21:30;;;;;;;1999.90;999.90;;;;;;;;;;5005815;28;20244;-71
2022/12/26 03:23:58;;;;;;;1999.90;999.90;;;;;;;;;;5003419;28;20236;-72
2022/12/26 03:26:39;;;;;;;1999.90;999.90;;;;;;;;;;5005136;28;20712;-71
2022/12/26 03:31:53;;;;;;;1999.90;999.90;;;;;;;;;;4988668;28;20225;-73
2022/12/26 03:34:21;;;;;;;1999.90;999.90;;;;;;;;;;5000695;28;20245;-73
2022/12/26 03:36:56;;;;;;;1999.90;999.90;;;;;;;;;;5000339;28;20648;-73
2022/12/26 04:19:22;;;;;;;1999.90;999.90;;;;;;;;;;5001495;28;20311;-72
2022/12/26 04:19:25;;;;;;;1999.90;999.90;;;;;;;;;;4996986;28;20241;-71
2022/12/26 04:44:15;;;;;;;1999.90;999.90;;;;;;;;;;5005646;28;20230;-71
2022/12/26 04:46:43;;;;;;;1999.90;999.90;;;;;;;;;;5024577;28;20265;-72
2022/12/26 04:51:59;;;;;;;1999.90;999.90;;;;;;;;;;4989650;28;20670;-72
2022/12/26 04:54:27;;;;;;;1999.90;999.90;;;;;;;;;;5007767;28;20222;-72
2022/12/26 04:56:55;;;;;;;1999.90;999.90;;;;;;;;;;5010003;28;20222;-72
2022/12/26 04:59:24;;;;;;;1999.90;999.90;;;;;;;;;;5007842;28;20304;-71
2022/12/26 05:10:15;;;;;;;1999.90;999.90;;;;;;;;;;5007349;28;20240;-71
2022/12/26 05:12:43;;;;;;;1999.90;999.90;;;;;;;;;;4990566;28;20681;-71
2022/12/26 05:15:13;;;;;;;1999.90;999.90;;;;;;;;;;4989072;28;20241;-71
2022/12/26 05:28:49;;;;;;;1999.90;999.90;;;;;;;;;;5004332;28;20244;-72
2022/12/26 05:31:18;;;;;;;1999.90;999.90;;;;;;;;;;5001058;28;20252;-73
2022/12/26 05:36:33;;;;;;;1999.90;999.90;;;;;;;;;;5001352;28;20727;-73
2022/12/26 05:39:01;;;;;;;1999.90;999.90;;;;;;;;;;5001876;28;20242;-72
2022/12/26 05:41:29;;;;;;;1999.90;999.90;;;;;;;;;;4984429;28;20237;-73
2022/12/26 05:43:57;;;;;;;1999.90;999.90;;;;;;;;;;5001131;28;20322;-72
2022/12/26 05:46:26;;;;;;;1999.90;999.90;;;;;;;;;;5001699;28;20234;-72
2022/12/26 05:48:54;;;;;;;1999.90;999.90;;;;;;;;;;5002333;28;20314;-74
2022/12/26 05:51:22;;;;;;;1999.90;999.90;;;;;;;;;;5000564;28;20320;-72
2022/12/26 05:53:51;;;;;;;1999.90;999.90;;;;;;;;;;5000985;28;20233;-72
2022/12/26 05:56:19;;;;;;;1999.90;999.90;;;;;;;;;;5001981;28;20234;-71
2022/12/26 05:58:47;;;;;;;1999.90;999.90;;;;;;;;;;5003067;28;20237;-72
2022/12/26 06:01:15;;;;;;;1999.90;999.90;;;;;;;;;;5002621;28;20237;-71
2022/12/26 06:03:47;;;;;;;1999.90;999.90;;;;;;;;;;5002804;28;21066;-71
2022/12/26 06:06:15;;;;;;;1999.90;999.90;;;;;;;;;;5002215;28;20313;-72
2022/12/26 06:08:44;;;;;;;1999.90;999.90;;;;;;;;;;4987860;28;20262;-71
2022/12/26 06:11:14;;;;;;;1999.90;999.90;;;;;;;;;;5002221;28;20244;-71
2022/12/26 06:13:42;;;;;;;1999.90;999.90;;;;;;;;;;4988582;28;20234;-71
2022/12/26 06:16:11;;;;;;;1999.90;999.90;;;;;;;;;;5002380;28;20300;-71
2022/12/26 06:18:39;;;;;;;1999.90;999.90;;;;;;;;;;5006658;28;20238;-71
2022/12/26 06:21:11;;;;;;;1999.90;999.90;;;;;;;;;;5004571;28;20261;-72
2022/12/26 06:23:39;;;;;;;1999.90;999.90;;;;;;;;;;5005229;28;20313;-71
2022/12/26 06:26:08;;;;;;;1999.90;999.90;;;;;;;;;;5004854;28;20229;-71
2022/12/26 06:28:38;;;;;;;1999.90;999.90;;;;;;;;;;5006689;28;20234;-71
2022/12/26 06:31:07;;;;;;;1999.90;999.90;;;;;;;;;;4990330;28;20229;-71
2022/12/26 06:33:35;;;;;;;1999.90;999.90;;;;;;;;;;5006576;28;20245;-71
2022/12/26 06:36:04;;;;;;;1999.90;999.90;;;;;;;;;;5006589;28;20308;-70
2022/12/26 06:38:33;;;;;;;1999.90;999.90;;;;;;;;;;4990035;28;20230;-71
2022/12/26 06:41:03;;;;;;;1999.90;999.90;;;;;;;;;;5005985;28;20229;-71
2022/12/26 06:43:31;;;;;;;1999.90;999.90;;;;;;;;;;5003743;28;20248;-71
2022/12/26 06:46:00;;;;;;;1999.90;999.90;;;;;;;;;;5004822;28;20225;-71
2022/12/26 06:48:28;;;;;;;1999.90;999.90;;;;;;;;;;5005171;28;20332;-70
2022/12/26 06:50:56;;;;;;;1999.90;999.90;;;;;;;;;;5004152;28;21764;-71
2022/12/26 06:53:24;;;;;;;1999.90;999.90;;;;;;;;;;4988148;28;20230;-71
2022/12/26 06:55:54;;;;;;;1999.90;999.90;;;;;;;;;;5004399;28;20268;-71
2022/12/26 06:58:21;;;;;;;1999.90;999.90;;;;;;;;;;5004019;28;20264;-71
2022/12/26 07:00:49;;;;;;;1999.90;999.90;;;;;;;;;;4989416;28;20237;-71
2022/12/26 07:03:18;;;;;;;1999.90;999.90;;;;;;;;;;5000085;28;20245;-72
2022/12/26 07:05:45;;;;;;;1999.90;999.90;;;;;;;;;;4998199;28;20225;-72
2022/12/26 07:08:14;;;;;;;1999.90;999.90;;;;;;;;;;5002682;28;20812;-71
2022/12/26 07:10:41;;;;;;;1999.90;999.90;;;;;;;;;;5004794;28;20235;-72
2022/12/26 07:13:11;;;;;;;1999.90;999.90;;;;;;;;;;5004308;28;20237;-71
2022/12/26 07:15:38;;;;;;;1999.90;999.90;;;;;;;;;;5003865;28;20341;-71
2022/12/26 07:18:06;;;;;;;1999.90;999.90;;;;;;;;;;5003214;28;20724;-72
2022/12/26 07:20:34;;;;;;;1999.90;999.90;;;;;;;;;;5004439;28;20309;-71
2022/12/26 07:23:02;;;;;;;1999.90;999.90;;;;;;;;;;5005694;28;20249;-72
2022/12/26 07:25:29;;;;;;;1999.90;999.90;;;;;;;;;;5004761;28;20300;-71
2022/12/26 07:27:59;;;;;;;1999.90;999.90;;;;;;;;;;5005661;28;20356;-71
2022/12/26 07:30:28;;;;;;;1999.90;999.90;;;;;;;;;;5007206;28;20699;-71
2022/12/26 07:32:56;;;;;;;1999.90;999.90;;;;;;;;;;5005655;28;20226;-71
2022/12/26 07:35:24;;;;;;;1999.90;999.90;;;;;;;;;;5008011;28;20258;-71
2022/12/26 07:37:52;;;;;;;1999.90;999.90;;;;;;;;;;4990338;28;20236;-71
2022/12/26 07:40:20;;;;;;;1999.90;999.90;;;;;;;;;;5009805;28;20237;-71
2022/12/26 07:42:47;;;;;;;1999.90;999.90;;;;;;;;;;5005458;28;20240;-72
2022/12/26 07:45:15;;;;;;;1999.90;999.90;;;;;;;;;;5002637;28;20238;-71
2022/12/26 07:47:45;;;;;;;1999.90;999.90;;;;;;;;;;5002161;28;20237;-71
2022/12/26 07:50:12;;;;;;;1999.90;999.90;;;;;;;;;;4986928;28;20238;-71
2022/12/26 07:52:40;;;;;;;1999.90;999.90;;;;;;;;;;5003904;28;20771;-71
2022/12/26 07:55:08;;;;;;;1999.90;999.90;;;;;;;;;;5000148;28;20222;-72
2022/12/26 07:57:36;;;;;;;1999.90;999.90;;;;;;;;;;5002344;28;20233;-72
2022/12/26 08:00:17;;;;;;;1999.90;999.90;;;;;;;;;;5000121;28;20241;-72
2022/12/26 08:02:47;;;;;;;1999.90;999.90;;;;;;;;;;4985808;28;20237;-72
2022/12/26 08:05:15;;;;;;;1999.90;999.90;;;;;;;;;;5000921;28;20683;-71
2022/12/26 08:07:43;;;;;;;1999.90;999.90;;;;;;;;;;5001528;28;20242;-71
2022/12/26 08:10:10;;;;;;;1999.90;999.90;;;;;;;;;;4998993;28;20242;-71
2022/12/26 08:12:38;;;;;;;1999.90;999.90;;;;;;;;;;5002082;28;20244;-72
2022/12/26 08:15:08;;;;;;;1999.90;999.90;;;;;;;;;;5002399;28;20221;-70
2022/12/26 08:17:36;;;;;;;1999.90;999.90;;;;;;;;;;5006792;28;20288;-72
2022/12/26 08:20:06;;;;;;;1999.90;999.90;;;;;;;;;;5004855;28;20248;-71
2022/12/26 08:22:34;;;;;;;1999.90;999.90;;;;;;;;;;5003112;28;20234;-72
2022/12/26 08:25:02;;;;;;;1999.90;999.90;;;;;;;;;;5006631;28;20256;-72
2022/12/26 08:27:30;;;;;;;1999.90;999.90;;;;;;;;;;5006276;28;20792;-71
2022/12/26 08:29:57;;;;;;;1999.90;999.90;;;;;;;;;;5005918;28;20240;-72
2022/12/26 08:32:25;;;;;;;1999.90;999.90;;;;;;;;;;5008430;28;20704;-70
2022/12/26 08:34:53;;;;;;;1999.90;999.90;;;;;;;;;;5007265;28;21090;-71
2022/12/26 08:37:23;;;;;;;1999.90;999.90;;;;;;;;;;5007717;28;20234;-71
2022/12/26 08:39:52;;;;;;;1999.90;999.90;;;;;;;;;;4992407;28;20328;-71
2022/12/26 08:42:20;;;;;;;1999.90;999.90;;;;;;;;;;5008883;28;20236;-71
2022/12/26 08:44:48;;;;;;;1999.90;999.90;;;;;;;;;;5007813;28;20245;-71
2022/12/26 08:47:16;;;;;;;1999.90;999.90;;;;;;;;;;5010567;28;20261;-71
2022/12/26 08:49:44;;;;;;;1999.90;999.90;;;;;;;;;;5006793;28;20258;-72
2022/12/26 08:52:12;;;;;;;1999.90;999.90;;;;;;;;;;5007404;28;20329;-71
2022/12/26 08:54:41;;;;;;;1999.90;999.90;;;;;;;;;;4992708;28;21490;-72
2022/12/26 08:57:09;;;;;;;1999.90;999.90;;;;;;;;;;5009308;28;21061;-72
2022/12/26 08:59:38;;;;;;;1999.90;999.90;;;;;;;;;;5009002;28;20668;-72
2022/12/26 09:02:06;;;;;;;1999.90;999.90;;;;;;;;;;5006002;28;20233;-72
2022/12/26 09:04:34;;;;;;;1999.90;999.90;;;;;;;;;;4992124;28;20802;-71
2022/12/26 09:07:02;;;;;;;1999.90;999.90;;;;;;;;;;5006880;28;20313;-72
2022/12/26 09:09:31;;;;;;;1999.90;999.90;;;;;;;;;;4991973;28;21234;-71
2022/12/26 09:12:00;;;;;;;1999.90;999.90;;;;;;;;;;4991405;28;20241;-72
2022/12/26 09:14:28;;;;;;;1999.90;999.90;;;;;;;;;;5007238;28;20285;-72
2022/12/26 09:16:56;;;;;;;1999.90;999.90;;;;;;;;;;4992345;28;20233;-72
2022/12/26 09:19:28;;;;;;;1999.90;999.90;;;;;;;;;;5007250;28;20657;-72
2022/12/26 09:24:37;;;;;;;1999.90;999.90;;;;;;;;;;5001875;28;20241;-71
2022/12/26 09:27:07;;;;;;;1999.90;999.90;;;;;;;;;;5003268;28;20300;-71
2022/12/26 09:29:36;;;;;;;1999.90;999.90;;;;;;;;;;5006092;28;20244;-72
2022/12/26 09:32:05;;;;;;;1999.90;999.90;;;;;;;;;;5002492;28;20320;-72
2022/12/26 09:34:33;;;;;;;1999.90;999.90;;;;;;;;;;5003990;28;20233;-71
2022/12/26 09:37:01;;;;;;;1999.90;999.90;;;;;;;;;;5005503;28;20230;-72
2022/12/26 09:39:28;;;;;;;1999.90;999.90;;;;;;;;;;5002443;28;21030;-72
2022/12/26 09:42:01;;;;;;;1999.90;999.90;;;;;;;;;;5005306;28;20246;-72
2022/12/26 09:44:37;;;;;;;1999.90;999.90;;;;;;;;;;5019505;28;20272;-73
2022/12/26 09:47:10;;;;;;;1999.90;999.90;;;;;;;;;;5002672;28;20233;-72
2022/12/26 09:49:42;;;;;;;1999.90;999.90;;;;;;;;;;4986877;28;20230;-71
2022/12/26 09:52:12;;;;;;;1999.90;999.90;;;;;;;;;;5002852;28;20230;-71
2022/12/26 09:54:42;;;;;;;1999.90;999.90;;;;;;;;;;5003658;28;20254;-71
2022/12/26 09:57:14;;;;;;;1999.90;999.90;;;;;;;;;;5003963;28;20230;-72
2022/12/26 09:59:50;;;;;;;1999.90;999.90;;;;;;;;;;5019205;28;20238;-71
2022/12/26 10:02:19;;;;;;;1999.90;999.90;;;;;;;;;;5002921;28;20280;-71
2022/12/26 10:04:47;;;;;;;1999.90;999.90;;;;;;;;;;5002688;28;20692;-72
2022/12/26 10:07:20;;;;;;;1999.90;999.90;;;;;;;;;;5004025;28;20248;-71
2022/12/26 10:09:55;;;;;;;1999.90;999.90;;;;;;;;;;5003994;28;20238;-71
2022/12/26 10:12:31;;;;;;;1999.90;999.90;;;;;;;;;;4986695;28;20225;-71
2022/12/26 10:15:03;;;;;;;1999.90;999.90;;;;;;;;;;5016755;28;20230;-72
2022/12/26 10:17:42;;;;;;;1999.90;999.90;;;;;;;;;;4990516;28;20237;-72
2022/12/26 10:20:28;;;;;;;1999.90;999.90;;;;;;;;;;5001681;28;20328;-72
2022/12/26 10:23:12;;;;;;;1999.90;999.90;;;;;;;;;;5000531;28;20270;-73
2022/12/26 10:25:43;;;;;;;1999.90;999.90;;;;;;;;;;5004695;28;20444;-72
2022/12/26 10:28:16;;;;;;;1999.90;999.90;;;;;;;;;;5003714;28;20976;-73
2022/12/26 10:30:45;;;;;;;1999.90;999.90;;;;;;;;;;5004518;28;20229;-74
2022/12/26 10:33:16;;;;;;;1999.90;999.90;;;;;;;;;;4988532;28;20230;-73
2022/12/26 10:35:45;;;;;;;1999.90;999.90;;;;;;;;;;5005660;28;20717;-73
2022/12/26 10:38:15;;;;;;;1999.90;999.90;;;;;;;;;;5004805;28;20732;-74
2022/12/26 10:40:44;;;;;;;1999.90;999.90;;;;;;;;;;4990847;28;20230;-74
2022/12/26 10:43:21;;;;;;;1999.90;999.90;;;;;;;;;;5006771;28;20233;-74
2022/12/26 10:45:54;;;;;;;1999.90;999.90;;;;;;;;;;5005155;28;20241;-78
2022/12/26 10:48:24;;;;;;;1999.90;999.90;;;;;;;;;;5007834;28;20225;-73
2022/12/26 10:50:53;;;;;;;1999.90;999.90;;;;;;;;;;5007141;28;20346;-76
2022/12/26 10:53:22;;;;;;;1999.90;999.90;;;;;;;;;;5007422;28;20285;-72
2022/12/26 10:55:50;;;;;;;1999.90;999.90;;;;;;;;;;5007329;28;20234;-76
2022/12/26 10:58:19;;;;;;;1999.90;999.90;;;;;;;;;;4990270;28;20288;-72
2022/12/26 11:00:47;;;;;;;1999.90;999.90;;;;;;;;;;5008197;28;20232;-76
2022/12/26 11:03:17;;;;;;;1999.90;999.90;;;;;;;;;;4989484;28;20237;-73
2022/12/26 11:05:47;;;;;;;1999.90;999.90;;;;;;;;;;5005777;28;21146;-73
2022/12/26 11:08:36;;;;;;;1999.90;999.90;;;;;;;;;;4988577;28;20244;-74
2022/12/26 11:11:13;;;;;;;1999.90;999.90;;;;;;;;;;5024509;28;20694;-73
2022/12/26 11:13:43;;;;;;;1999.90;999.90;;;;;;;;;;5011433;28;20940;-74
2022/12/26 11:16:10;;;;;;;1999.90;999.90;;;;;;;;;;4990749;28;20210;-74
2022/12/26 11:18:46;;;;;;;1999.90;999.90;;;;;;;;;;5018283;28;20249;-74
2022/12/26 11:21:21;;;;;;;1999.90;999.90;;;;;;;;;;5001927;28;20276;-74
2022/12/26 11:23:51;;;;;;;1999.90;999.90;;;;;;;;;;5013056;28;20245;-74
2022/12/26 11:26:20;;;;;;;1999.90;999.90;;;;;;;;;;5027087;28;20233;-73
2022/12/26 11:29:04;;;;;;;1999.90;999.90;;;;;;;;;;4990953;28;20427;-74
2022/12/26 11:31:32;;;;;;;1999.90;999.90;;;;;;;;;;4991940;28;20462;-74
2022/12/26 11:34:07;;;;;;;1999.90;999.90;;;;;;;;;;5009415;28;20229;-74
2022/12/26 11:36:36;;;;;;;1999.90;999.90;;;;;;;;;;5005473;28;20224;-73
2022/12/26 11:39:05;;;;;;;1999.90;999.90;;;;;;;;;;5005508;28;20242;-73
2022/12/26 11:41:38;;;;;;;1999.90;999.90;;;;;;;;;;5006764;28;20325;-75
2022/12/26 11:44:17;;;;;;;1999.90;999.90;;;;;;;;;;5021339;28;20245;-74
2022/12/26 11:46:47;;;;;;;1999.90;999.90;;;;;;;;;;5012227;28;20232;-79
2022/12/26 11:49:23;;;;;;;1999.90;999.90;;;;;;;;;;5025487;28;20628;-73
2022/12/26 11:51:51;;;;;;;1999.90;999.90;;;;;;;;;;5027522;28;20360;-75
2022/12/26 11:54:36;;;;;;;1999.90;999.90;;;;;;;;;;5011350;28;20264;-74
2022/12/26 11:57:17;;;;;;;1999.90;999.90;;;;;;;;;;5013455;28;20217;-75
2022/12/26 11:59:47;;;;;;;1999.90;999.90;;;;;;;;;;5013130;28;20289;-75
2022/12/26 12:02:18;;;;;;;1999.90;999.90;;;;;;;;;;4993623;28;20241;-74
2022/12/26 12:04:48;;;;;;;1999.90;999.90;;;;;;;;;;5012239;28;20245;-75
2022/12/26 12:07:23;;;;;;;1999.90;999.90;;;;;;;;;;5031795;28;20253;-74
2022/12/26 12:09:56;;;;;;;1999.90;999.90;;;;;;;;;;5015673;28;20229;-75
2022/12/26 12:12:28;;;;;;;1999.90;999.90;;;;;;;;;;5014557;28;20265;-73
2022/12/26 12:15:02;;;;;;;1999.90;999.90;;;;;;;;;;5029565;28;20252;-75
2022/12/26 12:17:35;;;;;;;1999.90;999.90;;;;;;;;;;5023370;28;20257;-74
2022/12/26 12:20:12;;;;;;;1999.90;999.90;;;;;;;;;;5004677;28;20229;-75
2022/12/26 12:23:04;;;;;;;1999.90;999.90;;;;;;;;;;5004577;28;20229;-73
2022/12/26 12:25:37;;;;;;;1999.90;999.90;;;;;;;;;;4989077;28;20806;-74
2022/12/26 12:28:10;;;;;;;1999.90;999.90;;;;;;;;;;5021003;28;20250;-75
2022/12/26 12:30:43;;;;;;;1999.90;999.90;;;;;;;;;;4987775;28;20230;-74
2022/12/26 12:33:16;;;;;;;1999.90;999.90;;;;;;;;;;5006689;28;20253;-74
2022/12/26 12:35:50;;;;;;;1999.90;999.90;;;;;;;;;;5005980;28;20234;-73
2022/12/26 12:38:25;;;;;;;1999.90;999.90;;;;;;;;;;5005439;28;20250;-74
2022/12/26 12:40:58;;;;;;;1999.90;999.90;;;;;;;;;;5006931;28;20233;-74
2022/12/26 12:43:29;;;;;;;1999.90;999.90;;;;;;;;;;5022815;28;20240;-74
2022/12/26 12:46:03;;;;;;;1999.90;999.90;;;;;;;;;;5006557;28;20332;-74
2022/12/26 12:48:44;;;;;;;1999.90;999.90;;;;;;;;;;5002377;28;20237;-74
2022/12/26 12:51:20;;;;;;;1999.90;999.90;;;;;;;;;;5022063;28;20234;-74
2022/12/26 12:53:59;;;;;;;1999.90;999.90;;;;;;;;;;5007235;28;20263;-75
2022/12/26 12:56:32;;;;;;;1999.90;999.90;;;;;;;;;;5004291;28;20317;-75
2022/12/26 12:59:14;;;;;;;1999.90;999.90;;;;;;;;;;5005500;28;20221;-73
2022/12/26 13:01:43;;;;;;;1999.90;999.90;;;;;;;;;;4992322;28;20226;-74
2022/12/26 13:04:14;;;;;;;1999.90;999.90;;;;;;;;;;5010412;28;20304;-74
2022/12/26 13:06:46;;;;;;;1999.90;999.90;;;;;;;;;;4987987;28;20241;-73
2022/12/26 13:09:15;;;;;;;1999.90;999.90;;;;;;;;;;5005663;28;20269;-72
2022/12/26 13:11:45;;;;;;;1999.90;999.90;;;;;;;;;;4987636;28;20229;-75
2022/12/26 13:14:16;;;;;;;1999.90;999.90;;;;;;;;;;4989742;28;20293;-72
2022/12/26 13:16:46;;;;;;;1999.90;999.90;;;;;;;;;;4988675;28;20230;-73
2022/12/26 13:19:17;;;;;;;1999.90;999.90;;;;;;;;;;5001076;28;20234;-72
2022/12/26 13:21:48;;;;;;;1999.90;999.90;;;;;;;;;;5001579;28;20238;-73
2022/12/26 13:24:23;;;;;;;1999.90;999.90;;;;;;;;;;4999163;28;21202;-73
2022/12/26 13:26:56;;;;;;;1999.90;999.90;;;;;;;;;;5003085;28;20618;-73
2022/12/26 13:29:32;;;;;;;1999.90;999.90;;;;;;;;;;5001284;28;20241;-72
2022/12/26 13:32:00;;;;;;;1999.90;999.90;;;;;;;;;;5001255;28;20237;-73
2022/12/26 13:34:28;;;;;;;1999.90;999.90;;;;;;;;;;5002571;28;20275;-73
2022/12/26 13:36:58;;;;;;;1999.90;999.90;;;;;;;;;;5001797;28;20238;-74
2022/12/26 13:39:31;;;;;;;1999.90;999.90;;;;;;;;;;5000943;28;20237;-73
2022/12/26 13:44:49;;;;;;;1999.90;999.90;;;;;;;;;;4996565;28;20240;-73
2022/12/26 13:47:30;;;;;;;1999.90;999.90;;;;;;;;;;4985067;28;20244;-73
2022/12/26 13:49:58;;;;;;;1999.90;999.90;;;;;;;;;;4983355;28;20226;-73
2022/12/26 13:52:34;;;;;;;1999.90;999.90;;;;;;;;;;4998147;28;20233;-73
2022/12/26 13:55:29;;;;;;;1999.90;999.90;;;;;;;;;;4994144;28;22101;-73
2022/12/26 13:58:11;;;;;;;1999.90;999.90;;;;;;;;;;4981622;28;20281;-74
2022/12/26 14:00:44;;;;;;;1999.90;999.90;;;;;;;;;;5018301;28;20672;-77
2022/12/26 14:03:29;;;;;;;1999.90;999.90;;;;;;;;;;4999722;28;20768;-77
2022/12/26 14:06:30;;;;;;;1999.90;999.90;;;;;;;;;;5001061;28;20328;-76
2022/12/26 14:09:20;;;;;;;1999.90;999.90;;;;;;;;;;4995946;28;20360;-74
2022/12/26 14:11:59;;;;;;;1999.90;999.90;;;;;;;;;;4990400;28;20669;-75
2022/12/26 14:14:31;;;;;;;1999.90;999.90;;;;;;;;;;5014438;28;20336;-74
2022/12/26 14:17:06;;;;;;;1999.90;999.90;;;;;;;;;;4979180;28;20265;-72
2022/12/26 14:19:42;;;;;;;1999.90;999.90;;;;;;;;;;4997452;28;20647;-74
2022/12/26 14:22:12;;;;;;;1999.90;999.90;;;;;;;;;;4998561;28;20237;-75
2022/12/26 14:24:46;;;;;;;1999.90;999.90;;;;;;;;;;4983933;28;20527;-74
2022/12/26 14:27:28;;;;;;;1999.90;999.90;;;;;;;;;;4983919;28;20234;-74
2022/12/26 14:30:01;;;;;;;1999.90;999.90;;;;;;;;;;5001137;28;20237;-76
2022/12/26 14:32:34;;;;;;;1999.90;999.90;;;;;;;;;;5000002;28;20950;-75
2022/12/26 14:35:06;;;;;;;1999.90;999.90;;;;;;;;;;5003136;28;20240;-74
2022/12/26 14:37:41;;;;;;;1999.90;999.90;;;;;;;;;;4985953;28;20311;-75
2022/12/26 14:40:19;;;;;;;1999.90;999.90;;;;;;;;;;5002934;28;20233;-74
2022/12/26 14:43:12;;;;;;;1999.90;999.90;;;;;;;;;;5001013;28;20316;-75
2022/12/26 14:45:47;;;;;;;1999.90;999.90;;;;;;;;;;5003941;28;21006;-75
2022/12/26 14:48:38;;;;;;;1999.90;999.90;;;;;;;;;;5001488;28;20871;-75
2022/12/26 14:51:27;;;;;;;1999.90;999.90;;;;;;;;;;5001839;28;20576;-74
2022/12/26 14:54:10;;;;;;;1999.90;999.90;;;;;;;;;;5002262;28;20258;-75
2022/12/26 14:56:38;;;;;;;1999.90;999.90;;;;;;;;;;4978452;28;20316;-74
2022/12/26 14:59:27;;;;;;;1999.90;999.90;;;;;;;;;;4986595;28;20720;-75
2022/12/26 15:02:10;;;;;;;1999.90;999.90;;;;;;;;;;5003285;28;20230;-74
2022/12/26 15:05:02;;;;;;;1999.90;999.90;;;;;;;;;;4996843;28;20225;-75
2022/12/26 15:07:58;;;;;;;1999.90;999.90;;;;;;;;;;5000239;28;20241;-75
2022/12/26 15:10:51;;;;;;;1999.90;999.90;;;;;;;;;;4986178;28;20237;-75
2022/12/26 15:13:34;;;;;;;1999.90;999.90;;;;;;;;;;5001681;28;20288;-74
2022/12/26 15:16:15;;;;;;;1999.90;999.90;;;;;;;;;;5001620;28;20225;-75
2022/12/26 15:18:57;;;;;;;1999.90;999.90;;;;;;;;;;4996583;28;20248;-75
2022/12/26 15:21:38;;;;;;;1999.90;999.90;;;;;;;;;;4993961;28;20260;-74
2022/12/26 15:24:17;;;;;;;1999.90;999.90;;;;;;;;;;4978775;28;20241;-74
2022/12/26 15:27:12;;;;;;;1999.90;999.90;;;;;;;;;;4993456;28;20237;-74
2022/12/26 15:29:53;;;;;;;1999.90;999.90;;;;;;;;;;4962461;28;21040;-74
2022/12/26 15:32:25;;;;;;;1999.90;999.90;;;;;;;;;;4996550;28;21283;-74
2022/12/26 15:34:57;;;;;;;1999.90;999.90;;;;;;;;;;4993629;28;20237;-74
2022/12/26 15:37:34;;;;;;;1999.90;999.90;;;;;;;;;;4995578;28;20230;-74
2022/12/26 15:40:10;;;;;;;1999.90;999.90;;;;;;;;;;4996884;28;20296;-74
2022/12/26 15:42:42;;;;;;;1999.90;999.90;;;;;;;;;;4995711;28;20233;-74
2022/12/26 15:45:18;;;;;;;1999.90;999.90;;;;;;;;;;4976464;28;20229;-73
2022/12/26 15:47:58;;;;;;;1999.90;999.90;;;;;;;;;;5013723;28;20248;-74
2022/12/26 15:50:28;;;;;;;1999.90;999.90;;;;;;;;;;4997757;28;20225;-74
2022/12/26 15:53:05;;;;;;;1999.90;999.90;;;;;;;;;;4995216;28;21050;-74
2022/12/26 15:55:39;;;;;;;1999.90;999.90;;;;;;;;;;4977669;28;20600;-73
2022/12/26 15:58:12;;;;;;;1999.90;999.90;;;;;;;;;;4992901;28;20242;-73
2022/12/26 16:00:47;;;;;;;1999.90;999.90;;;;;;;;;;4991214;28;20244;-73
2022/12/26 16:03:24;;;;;;;1999.90;999.90;;;;;;;;;;4998832;28;20660;-73
2022/12/26 16:05:58;;;;;;;1999.90;999.90;;;;;;;;;;5002623;28;20236;-78
2022/12/26 16:08:47;;;;;;;1999.90;999.90;;;;;;;;;;4968754;28;20941;-76
2022/12/26 16:11:19;;;;;;;1999.90;999.90;;;;;;;;;;5015122;28;20715;-74
2022/12/26 16:13:51;;;;;;;1999.90;999.90;;;;;;;;;;5001728;28;20238;-72